createdAt,value
2022-07-31T00:02:41.925Z,3.00
2022-07-31T00:05:30.982Z,3.50
2022-07-31T00:08:19.532Z,2.70
2022-07-31T00:11:11.538Z,3.17
2022-07-31T00:14:01.466Z,2.93
2022-07-31T00:16:50.019Z,2.70
2022-07-31T00:19:38.599Z,2.70
2022-07-31T00:22:27.145Z,3.10
2022-07-31T00:25:16.870Z,2.97
2022-07-31T00:28:06.092Z,2.97
2022-07-31T00:30:56.019Z,2.60
2022-07-31T00:33:44.580Z,2.90
2022-07-31T00:36:33.086Z,3.40
2022-07-31T00:39:21.600Z,2.90
2022-07-31T00:42:18.277Z,3.20
2022-07-31T00:45:08.077Z,3.40
2022-07-31T00:47:58.131Z,3.57
2022-07-31T00:50:46.669Z,2.93
2022-07-31T00:53:35.181Z,3.23
2022-07-31T00:56:25.123Z,3.37
2022-07-31T00:59:16.874Z,3.10
2022-07-31T01:02:15.167Z,3.10
2022-07-31T01:05:05.686Z,3.60
2022-07-31T01:07:54.204Z,3.50
2022-07-31T01:10:48.154Z,3.23
2022-07-31T01:13:45.227Z,3.33
2022-07-31T01:16:36.208Z,3.40
2022-07-31T01:19:39.671Z,3.40
2022-07-31T01:23:16.640Z,3.90
2022-07-31T01:26:20.042Z,3.77
2022-07-31T01:29:21.351Z,3.63
2022-07-31T01:32:13.251Z,3.37
2022-07-31T01:35:07.763Z,3.73
2022-07-31T01:37:58.768Z,3.80
2022-07-31T01:40:49.700Z,4.00
2022-07-31T01:43:41.150Z,3.43
2022-07-31T01:46:31.731Z,3.83
2022-07-31T01:49:27.292Z,3.83
2022-07-31T01:52:16.112Z,3.60
2022-07-31T01:55:06.625Z,4.03
2022-07-31T01:57:56.269Z,4.30
2022-07-31T02:00:45.373Z,4.27
2022-07-31T02:03:43.828Z,4.60
2022-07-31T02:06:33.960Z,3.97
2022-07-31T02:09:23.950Z,4.30
2022-07-31T02:12:14.311Z,4.17
2022-07-31T02:15:04.574Z,4.27
2022-07-31T02:17:54.327Z,4.30
2022-07-31T02:20:44.805Z,3.90
2022-07-31T02:23:33.365Z,3.90
2022-07-31T02:26:22.295Z,4.27
2022-07-31T02:29:19.649Z,3.67
2022-07-31T02:32:09.478Z,3.87
2022-07-31T02:34:59.464Z,4.03
2022-07-31T02:37:51.989Z,4.00
2022-07-31T02:40:41.133Z,3.77
2022-07-31T02:43:32.388Z,3.67
2022-07-31T02:46:21.224Z,3.30
2022-07-31T02:49:10.016Z,3.30
2022-07-31T02:51:58.833Z,3.77
2022-07-31T02:54:48.797Z,4.03
2022-07-31T02:57:37.344Z,3.27
2022-07-31T03:00:27.844Z,3.20
2022-07-31T03:03:16.356Z,4.10
2022-07-31T03:06:05.049Z,4.10
2022-07-31T03:08:53.553Z,4.17
2022-07-31T03:11:46.280Z,4.10
2022-07-31T03:14:35.312Z,4.90
2022-07-31T03:17:24.548Z,3.90
2022-07-31T03:20:27.968Z,4.17
2022-07-31T03:23:16.601Z,4.73
2022-07-31T03:26:06.223Z,3.80
2022-07-31T03:28:57.290Z,3.97
2022-07-31T03:31:48.580Z,3.40
2022-07-31T03:34:37.108Z,3.50
2022-07-31T03:37:25.600Z,4.20
2022-07-31T03:40:14.645Z,3.77
2022-07-31T03:43:04.240Z,4.03
2022-07-31T03:45:54.598Z,3.63
2022-07-31T03:48:43.330Z,3.33
2022-07-31T03:51:32.690Z,3.97
2022-07-31T03:54:21.221Z,3.70
2022-07-31T03:57:11.039Z,4.10
2022-07-31T04:00:02.402Z,4.00
2022-07-31T04:02:53.172Z,4.20
2022-07-31T04:05:42.373Z,4.07
2022-07-31T04:08:31.036Z,3.67
2022-07-31T04:11:19.571Z,3.97
2022-07-31T04:14:08.130Z,4.40
2022-07-31T04:16:56.799Z,3.90
2022-07-31T04:19:46.705Z,3.80
2022-07-31T04:22:35.289Z,3.80
2022-07-31T04:25:24.141Z,3.97
2022-07-31T04:28:12.665Z,3.83
2022-07-31T04:31:01.165Z,3.30
2022-07-31T04:33:54.519Z,3.53
2022-07-31T04:36:46.324Z,3.87
2022-07-31T04:39:34.908Z,3.70
2022-07-31T04:42:23.444Z,3.90
2022-07-31T04:45:11.942Z,4.00
2022-07-31T04:48:03.378Z,3.50
2022-07-31T04:50:51.916Z,3.60
2022-07-31T04:53:41.778Z,3.73
2022-07-31T04:56:37.587Z,3.83
2022-07-31T05:00:00.459Z,4.33
2022-07-31T05:02:34.961Z,3.63
2022-07-31T05:05:23.434Z,3.50
2022-07-31T05:08:12.010Z,3.50
2022-07-31T05:11:19.221Z,4.00
2022-07-31T05:14:09.543Z,3.80
2022-07-31T05:16:58.379Z,3.63
2022-07-31T05:19:46.932Z,3.70
2022-07-31T05:22:35.510Z,3.90
2022-07-31T05:25:23.991Z,3.80
2022-07-31T05:28:13.928Z,3.70
2022-07-31T05:31:03.008Z,4.47
2022-07-31T05:33:54.197Z,4.00
2022-07-31T05:36:42.696Z,4.10
2022-07-31T05:39:31.834Z,3.50
2022-07-31T05:42:20.346Z,3.10
2022-07-31T05:45:11.502Z,4.13
2022-07-31T05:47:59.994Z,3.37
2022-07-31T05:50:50.121Z,3.20
2022-07-31T05:53:39.295Z,3.30
2022-07-31T05:56:28.788Z,3.37
2022-07-31T05:59:17.326Z,3.60
2022-07-31T06:02:07.706Z,3.17
2022-07-31T06:04:56.577Z,3.73
2022-07-31T06:07:51.344Z,3.37
2022-07-31T06:10:43.590Z,3.90
2022-07-31T06:13:32.132Z,3.53
2022-07-31T06:16:20.620Z,3.43
2022-07-31T06:19:10.516Z,3.20
2022-07-31T06:21:59.010Z,3.40
2022-07-31T06:24:47.568Z,3.50
2022-07-31T06:27:36.904Z,3.50
2022-07-31T06:30:28.050Z,3.70
2022-07-31T06:33:20.145Z,3.10
2022-07-31T06:36:26.444Z,3.40
2022-07-31T06:39:15.265Z,3.60
2022-07-31T06:42:04.121Z,3.73
2022-07-31T06:44:53.042Z,3.60
2022-07-31T06:47:41.928Z,3.87
2022-07-31T06:50:30.451Z,3.50
2022-07-31T06:53:20.333Z,3.37
2022-07-31T06:56:09.296Z,3.77
2022-07-31T06:58:58.111Z,3.90
2022-07-31T07:01:47.647Z,3.80
2022-07-31T07:05:04.409Z,3.40
2022-07-31T07:07:44.790Z,3.00
2022-07-31T07:10:34.657Z,3.10
2022-07-31T07:13:26.326Z,3.57
2022-07-31T07:16:34.851Z,3.10
2022-07-31T07:19:24.962Z,3.07
2022-07-31T07:22:13.548Z,3.03
2022-07-31T07:25:02.164Z,3.40
2022-07-31T07:27:52.068Z,3.17
2022-07-31T07:30:40.636Z,3.17
2022-07-31T07:33:39.631Z,2.77
2022-07-31T07:36:30.403Z,3.07
2022-07-31T07:39:18.981Z,3.00
2022-07-31T07:42:07.843Z,4.03
2022-07-31T07:44:58.631Z,3.23
2022-07-31T07:48:02.836Z,2.90
2022-07-31T07:50:55.494Z,2.70
2022-07-31T07:53:44.043Z,2.70
2022-07-31T07:56:32.579Z,2.70
2022-07-31T07:59:21.130Z,2.70
2022-07-31T08:02:12.282Z,2.37
2022-07-31T08:05:00.988Z,2.30
2022-07-31T08:07:49.572Z,2.60
2022-07-31T08:10:39.295Z,2.50
2022-07-31T08:13:27.842Z,2.90
2022-07-31T08:16:19.353Z,2.53
2022-07-31T08:19:09.312Z,2.70
2022-07-31T08:21:57.828Z,3.07
2022-07-31T08:24:46.518Z,5.23
2022-07-31T08:27:40.510Z,2.63
2022-07-31T08:30:31.098Z,2.60
2022-07-31T08:33:19.872Z,2.60
2022-07-31T08:36:11.007Z,2.43
2022-07-31T08:38:59.753Z,2.23
2022-07-31T08:41:48.332Z,2.13
2022-07-31T08:44:37.539Z,2.23
2022-07-31T08:47:27.136Z,2.50
2022-07-31T08:50:16.444Z,2.30
2022-07-31T08:53:07.880Z,2.13
2022-07-31T08:55:57.780Z,2.20
2022-07-31T08:58:46.891Z,2.30
2022-07-31T09:01:38.776Z,2.47
2022-07-31T09:04:27.380Z,2.10
2022-07-31T09:07:16.553Z,2.43
2022-07-31T09:10:21.215Z,2.00
2022-07-31T09:13:14.723Z,2.10
2022-07-31T09:16:04.209Z,2.10
2022-07-31T09:18:56.735Z,2.10
2022-07-31T09:21:46.309Z,2.33
2022-07-31T09:24:39.567Z,2.80
2022-07-31T09:27:33.068Z,2.30
2022-07-31T09:30:21.894Z,2.07
2022-07-31T09:33:14.898Z,2.13
2022-07-31T09:36:06.320Z,1.97
2022-07-31T09:38:56.334Z,2.00
2022-07-31T09:41:59.922Z,2.53
2022-07-31T09:44:53.170Z,4.40
2022-07-31T09:47:42.002Z,2.43
2022-07-31T09:50:30.818Z,2.03
2022-07-31T09:53:20.745Z,2.30
2022-07-31T09:56:12.533Z,1.90
2022-07-31T09:59:01.654Z,2.37
2022-07-31T10:01:54.534Z,2.17
2022-07-31T10:04:44.680Z,2.00
2022-07-31T10:07:36.645Z,2.10
2022-07-31T10:10:25.467Z,2.23
2022-07-31T10:13:16.757Z,2.03
2022-07-31T10:16:06.192Z,2.57
2022-07-31T10:18:58.248Z,4.63
2022-07-31T10:21:53.024Z,2.40
2022-07-31T10:24:45.390Z,2.37
2022-07-31T10:27:34.012Z,2.20
2022-07-31T10:30:28.855Z,2.10
2022-07-31T10:33:42.567Z,2.07
2022-07-31T10:36:30.651Z,2.13
2022-07-31T10:39:24.757Z,7.07
2022-07-31T10:42:19.158Z,2.37
2022-07-31T10:45:09.399Z,2.10
2022-07-31T10:47:59.016Z,2.03
2022-07-31T10:50:48.506Z,2.27
2022-07-31T10:53:51.169Z,2.03
2022-07-31T10:56:44.665Z,2.00
2022-07-31T10:59:33.311Z,2.00
2022-07-31T11:02:31.929Z,2.00
2022-07-31T11:05:23.277Z,2.47
2022-07-31T11:08:14.820Z,2.13
2022-07-31T11:11:04.701Z,2.20
2022-07-31T11:13:55.370Z,2.30
2022-07-31T11:16:51.207Z,2.10
2022-07-31T11:19:41.511Z,2.10
2022-07-31T11:22:31.421Z,2.30
2022-07-31T11:25:21.970Z,2.20
2022-07-31T11:28:18.744Z,3.53
2022-07-31T11:31:09.370Z,2.17
2022-07-31T11:33:57.925Z,2.40
2022-07-31T11:36:51.034Z,2.30
2022-07-31T11:39:51.289Z,2.10
2022-07-31T11:42:44.563Z,2.30
2022-07-31T11:45:34.520Z,2.27
2022-07-31T11:48:27.333Z,2.53
2022-07-31T11:51:19.421Z,2.20
2022-07-31T11:54:07.936Z,2.30
2022-07-31T11:56:57.287Z,2.60
2022-07-31T11:59:49.592Z,2.50
2022-07-31T12:02:43.375Z,2.10
2022-07-31T12:05:38.682Z,2.10
2022-07-31T12:08:29.437Z,2.47
2022-07-31T12:11:19.627Z,3.03
2022-07-31T12:14:13.340Z,2.50
2022-07-31T12:17:02.949Z,2.47
2022-07-31T12:19:57.787Z,2.30
2022-07-31T12:22:46.640Z,2.40
2022-07-31T12:25:42.680Z,1.83
2022-07-31T12:28:31.309Z,2.47
2022-07-31T12:31:19.892Z,2.20
2022-07-31T12:34:08.423Z,2.30
2022-07-31T12:37:06.207Z,2.10
2022-07-31T12:40:00.848Z,2.70
2022-07-31T12:42:50.130Z,2.60
2022-07-31T12:45:39.965Z,2.90
2022-07-31T12:48:28.505Z,2.27
2022-07-31T12:51:20.463Z,2.73
2022-07-31T12:54:31.312Z,2.70
2022-07-31T12:57:19.922Z,2.60
2022-07-31T13:00:09.435Z,2.73
2022-07-31T13:03:00.384Z,2.40
2022-07-31T13:05:52.262Z,2.43
2022-07-31T13:08:40.956Z,2.37
2022-07-31T13:11:45.598Z,2.33
2022-07-31T13:14:35.632Z,2.23
2022-07-31T13:17:24.202Z,2.20
2022-07-31T13:20:16.595Z,2.63
2022-07-31T13:23:05.481Z,2.90
2022-07-31T13:25:54.127Z,2.10
2022-07-31T13:28:44.025Z,2.50
2022-07-31T13:31:32.628Z,2.90
2022-07-31T13:34:21.168Z,2.40
2022-07-31T13:37:15.653Z,2.47
2022-07-31T13:40:04.616Z,2.50
2022-07-31T13:42:54.814Z,2.03
2022-07-31T13:45:46.887Z,2.20
2022-07-31T13:48:35.476Z,3.00
2022-07-31T13:51:28.682Z,2.23
2022-07-31T13:54:17.756Z,2.50
2022-07-31T13:57:07.847Z,2.60
2022-07-31T13:59:56.463Z,2.30
2022-07-31T14:02:46.711Z,2.23
2022-07-31T14:05:40.072Z,2.17
2022-07-31T14:08:32.946Z,1.80
2022-07-31T14:11:38.925Z,2.33
2022-07-31T14:14:27.468Z,5.47
2022-07-31T14:17:16.128Z,2.00
2022-07-31T14:20:07.268Z,1.90
2022-07-31T14:22:55.833Z,2.40
2022-07-31T14:25:44.583Z,2.33
2022-07-31T14:28:38.209Z,2.10
2022-07-31T14:31:26.824Z,2.37
2022-07-31T14:34:15.361Z,2.40
2022-07-31T14:37:05.695Z,2.53
2022-07-31T14:39:54.498Z,2.70
2022-07-31T14:42:43.141Z,2.50
2022-07-31T14:45:31.726Z,2.10
2022-07-31T14:48:28.165Z,2.30
2022-07-31T14:51:20.287Z,2.33
2022-07-31T14:54:10.258Z,2.50
2022-07-31T14:57:01.542Z,2.40
2022-07-31T14:59:50.929Z,2.50
2022-07-31T15:02:39.803Z,2.53
2022-07-31T15:06:39.558Z,3.47
2022-07-31T15:08:38.912Z,2.10
2022-07-31T15:11:48.592Z,2.07
2022-07-31T15:14:37.543Z,2.20
2022-07-31T15:17:26.283Z,2.20
2022-07-31T15:20:15.072Z,2.00
2022-07-31T15:23:04.122Z,1.83
2022-07-31T15:25:52.673Z,1.83
2022-07-31T15:28:44.313Z,1.80
2022-07-31T15:31:32.968Z,1.53
2022-07-31T15:34:21.845Z,1.90
2022-07-31T15:37:10.397Z,1.93
2022-07-31T15:40:11.194Z,2.00
2022-07-31T15:42:59.831Z,2.00
2022-07-31T15:45:49.813Z,1.90
2022-07-31T15:48:39.187Z,1.70
2022-07-31T15:51:28.974Z,1.70
2022-07-31T15:54:17.635Z,2.03
2022-07-31T15:57:06.325Z,1.80
2022-07-31T15:59:55.487Z,2.10
2022-07-31T16:02:45.787Z,1.70
2022-07-31T16:05:37.064Z,2.23
2022-07-31T16:08:35.163Z,1.97
2022-07-31T16:11:24.509Z,1.93
2022-07-31T16:14:32.996Z,1.53
2022-07-31T16:17:21.596Z,1.50
2022-07-31T16:20:13.185Z,1.63
2022-07-31T16:23:14.398Z,1.73
2022-07-31T16:26:03.413Z,1.50
2022-07-31T16:28:54.165Z,1.60
2022-07-31T16:31:42.943Z,1.60
2022-07-31T16:34:31.456Z,1.90
2022-07-31T16:37:21.400Z,2.30
2022-07-31T16:40:32.108Z,5.00
2022-07-31T16:43:49.893Z,1.53
2022-07-31T16:46:29.359Z,1.90
2022-07-31T16:49:36.163Z,1.70
2022-07-31T16:52:29.969Z,1.80
2022-07-31T16:55:20.645Z,1.67
2022-07-31T16:58:11.058Z,1.67
2022-07-31T17:00:59.853Z,1.70
2022-07-31T17:04:01.258Z,1.77
2022-07-31T17:06:51.594Z,2.00
2022-07-31T17:09:41.536Z,1.60
2022-07-31T17:12:30.170Z,1.90
2022-07-31T17:15:18.966Z,1.67
2022-07-31T17:18:10.307Z,1.70
2022-07-31T17:20:59.729Z,1.30
2022-07-31T17:23:50.839Z,1.77
2022-07-31T17:26:41.214Z,1.50
2022-07-31T17:29:29.786Z,1.80
2022-07-31T17:32:20.760Z,1.40
2022-07-31T17:35:10.123Z,1.80
2022-07-31T17:38:02.309Z,2.60
2022-07-31T17:40:51.185Z,2.73
2022-07-31T17:43:50.491Z,2.10
2022-07-31T17:46:43.862Z,1.40
2022-07-31T17:49:37.533Z,2.00
2022-07-31T17:52:26.158Z,1.63
2022-07-31T17:55:14.666Z,2.60
2022-07-31T17:58:03.326Z,2.10
2022-07-31T18:00:53.975Z,1.90
2022-07-31T18:03:42.536Z,1.87
2022-07-31T18:06:31.195Z,1.50
2022-07-31T18:09:25.848Z,1.70
2022-07-31T18:12:15.895Z,1.50
2022-07-31T18:15:05.453Z,1.40
2022-07-31T18:17:55.386Z,1.73
2022-07-31T18:20:45.625Z,1.90
2022-07-31T18:23:34.174Z,1.60
2022-07-31T18:26:23.499Z,1.90
2022-07-31T18:29:12.108Z,1.80
2022-07-31T18:32:00.711Z,1.57
2022-07-31T18:34:50.636Z,1.60
2022-07-31T18:37:40.338Z,1.90
2022-07-31T18:40:28.903Z,1.50
2022-07-31T18:43:19.582Z,1.60
2022-07-31T18:46:10.920Z,1.73
2022-07-31T18:49:00.386Z,1.73
2022-07-31T18:51:50.492Z,2.20
2022-07-31T18:54:39.346Z,2.40
2022-07-31T18:57:27.918Z,1.70
2022-07-31T19:00:17.025Z,1.93
2022-07-31T19:03:05.752Z,1.77
2022-07-31T19:05:56.636Z,1.67
2022-07-31T19:08:49.339Z,1.80
2022-07-31T19:11:38.164Z,2.10
2022-07-31T19:14:26.738Z,1.80
2022-07-31T19:17:18.472Z,1.53
2022-07-31T19:20:13.796Z,2.37
2022-07-31T19:23:20.511Z,1.80
2022-07-31T19:26:10.442Z,1.77
2022-07-31T19:28:58.981Z,2.27
2022-07-31T19:31:48.796Z,2.30
2022-07-31T19:34:38.736Z,2.20
2022-07-31T19:37:31.329Z,2.40
2022-07-31T19:40:19.885Z,2.60
2022-07-31T19:43:14.934Z,2.37
2022-07-31T19:46:11.535Z,2.20
2022-07-31T19:49:02.780Z,2.60
2022-07-31T19:51:54.445Z,2.90
2022-07-31T19:54:43.049Z,2.93
2022-07-31T19:57:31.725Z,4.00
2022-07-31T20:00:21.797Z,4.50
2022-07-31T20:03:10.375Z,4.40
2022-07-31T20:05:59.004Z,4.40
2022-07-31T20:08:49.074Z,4.70
2022-07-31T20:11:37.635Z,2.70
2022-07-31T20:14:26.314Z,4.00
2022-07-31T20:17:16.365Z,2.57
2022-07-31T20:20:15.579Z,5.10
2022-07-31T20:23:07.236Z,2.77
2022-07-31T20:25:56.452Z,3.73
2022-07-31T20:28:45.364Z,3.03
2022-07-31T20:31:36.375Z,2.80
2022-07-31T20:34:26.619Z,3.23
2022-07-31T20:37:15.156Z,3.10
2022-07-31T20:40:04.026Z,2.40
2022-07-31T20:42:52.592Z,2.33
2022-07-31T20:45:41.589Z,2.70
2022-07-31T20:48:34.853Z,2.83
2022-07-31T20:51:25.062Z,3.00
2022-07-31T20:54:13.616Z,3.77
2022-07-31T20:57:02.199Z,2.97
2022-07-31T20:59:50.784Z,3.00
2022-07-31T21:02:39.392Z,2.90
2022-07-31T21:05:29.579Z,3.03
2022-07-31T21:08:19.881Z,3.27
2022-07-31T21:11:08.605Z,3.07
2022-07-31T21:13:57.595Z,2.97
2022-07-31T21:16:46.176Z,2.40
2022-07-31T21:19:34.765Z,2.63
2022-07-31T21:22:23.364Z,2.90
2022-07-31T21:25:14.183Z,2.80
2022-07-31T21:28:03.063Z,3.57
2022-07-31T21:30:53.516Z,2.40
2022-07-31T21:33:42.634Z,3.00
2022-07-31T21:36:31.464Z,2.53
2022-07-31T21:39:20.515Z,2.70
2022-07-31T21:42:11.602Z,2.47
2022-07-31T21:45:00.940Z,2.53
2022-07-31T21:47:52.393Z,3.00
2022-07-31T21:50:43.201Z,3.07
2022-07-31T21:53:31.747Z,2.30
2022-07-31T21:56:20.355Z,2.60
2022-07-31T21:59:10.479Z,2.80
2022-07-31T22:02:08.359Z,2.80
2022-07-31T22:05:14.637Z,2.77
2022-07-31T22:08:03.222Z,11.17
2022-07-31T22:10:53.527Z,6.57
2022-07-31T22:13:42.108Z,5.77
2022-07-31T22:16:32.015Z,3.73
2022-07-31T22:19:21.025Z,3.30
2022-07-31T22:22:10.834Z,3.10
2022-07-31T22:25:00.192Z,3.00
2022-07-31T22:27:56.388Z,3.13
2022-07-31T22:30:45.488Z,3.70
2022-07-31T22:33:35.569Z,2.87
2022-07-31T22:36:27.643Z,2.57
2022-07-31T22:39:20.505Z,2.83
2022-07-31T22:42:09.545Z,2.70
2022-07-31T22:44:58.999Z,2.83
2022-07-31T22:47:47.735Z,2.90
2022-07-31T22:50:38.829Z,3.10
2022-07-31T22:53:27.487Z,3.07
2022-07-31T22:56:16.080Z,2.83
2022-07-31T22:59:04.817Z,2.57
2022-07-31T23:01:53.510Z,2.77
2022-07-31T23:04:42.556Z,2.53
2022-07-31T23:07:32.490Z,2.60
2022-07-31T23:10:21.123Z,2.90
2022-07-31T23:13:09.680Z,3.43
2022-07-31T23:15:58.309Z,2.80
2022-07-31T23:18:48.241Z,2.37
2022-07-31T23:21:36.762Z,2.90
2022-07-31T23:24:26.702Z,2.70
2022-07-31T23:27:15.265Z,2.60
2022-07-31T23:30:03.846Z,2.90
2022-07-31T23:32:55.313Z,2.63
2022-07-31T23:35:43.822Z,2.97
2022-07-31T23:38:32.381Z,2.60
2022-07-31T23:41:36.280Z,2.67
2022-07-31T23:44:25.333Z,3.07
2022-07-31T23:47:15.994Z,3.90
2022-07-31T23:50:05.307Z,3.23
2022-07-31T23:52:54.192Z,3.00
2022-07-31T23:55:43.074Z,3.60
2022-07-31T23:58:34.214Z,2.90
